sensor_id;sensor_type;location;lat;lon;timestamp;P1;durP1;ratioP1;P2;durP2;ratioP2
80675;SDS011;70041;46.088;18.268;2023-12-20T00:01:16;28.47;;;14.20;;
80675;SDS011;70041;46.088;18.268;2023-12-20T00:03:41;26.38;;;14.35;;
80675;SDS011;70041;46.088;18.268;2023-12-20T00:06:07;27.07;;;13.60;;
80675;SDS011;70041;46.088;18.268;2023-12-20T00:08:32;23.07;;;12.87;;
80675;SDS011;70041;46.088;18.268;2023-12-20T00:10:58;26.00;;;15.13;;
80675;SDS011;70041;46.088;18.268;2023-12-20T00:13:23;26.07;;;15.07;;
80675;SDS011;70041;46.088;18.268;2023-12-20T00:15:48;25.13;;;14.85;;
80675;SDS011;70041;46.088;18.268;2023-12-20T00:18:14;28.20;;;16.90;;
80675;SDS011;70041;46.088;18.268;2023-12-20T00:20:39;37.03;;;17.40;;
80675;SDS011;70041;46.088;18.268;2023-12-20T00:23:05;33.10;;;18.67;;
80675;SDS011;70041;46.088;18.268;2023-12-20T00:25:30;33.07;;;18.03;;
80675;SDS011;70041;46.088;18.268;2023-12-20T00:27:56;29.58;;;15.75;;
80675;SDS011;70041;46.088;18.268;2023-12-20T00:30:21;32.10;;;15.77;;
80675;SDS011;70041;46.088;18.268;2023-12-20T00:32:46;29.23;;;15.57;;
80675;SDS011;70041;46.088;18.268;2023-12-20T00:35:13;26.73;;;14.47;;
80675;SDS011;70041;46.088;18.268;2023-12-20T00:37:39;29.17;;;15.85;;
80675;SDS011;70041;46.088;18.268;2023-12-20T00:40:04;28.37;;;14.37;;
80675;SDS011;70041;46.088;18.268;2023-12-20T00:42:30;26.33;;;15.02;;
80675;SDS011;70041;46.088;18.268;2023-12-20T00:44:56;26.67;;;15.10;;
80675;SDS011;70041;46.088;18.268;2023-12-20T00:47:21;27.50;;;14.23;;
80675;SDS011;70041;46.088;18.268;2023-12-20T00:49:47;28.65;;;15.57;;
80675;SDS011;70041;46.088;18.268;2023-12-20T00:52:12;35.23;;;15.60;;
80675;SDS011;70041;46.088;18.268;2023-12-20T00:54:38;29.25;;;15.10;;
80675;SDS011;70041;46.088;18.268;2023-12-20T00:57:03;31.90;;;15.27;;
80675;SDS011;70041;46.088;18.268;2023-12-20T00:59:29;28.13;;;14.53;;
80675;SDS011;70041;46.088;18.268;2023-12-20T01:01:54;30.33;;;15.57;;
80675;SDS011;70041;46.088;18.268;2023-12-20T01:04:20;31.48;;;15.48;;
80675;SDS011;70041;46.088;18.268;2023-12-20T01:06:45;26.73;;;14.83;;
80675;SDS011;70041;46.088;18.268;2023-12-20T01:09:11;29.50;;;15.97;;
80675;SDS011;70041;46.088;18.268;2023-12-20T01:11:36;25.07;;;14.53;;
80675;SDS011;70041;46.088;18.268;2023-12-20T01:14:01;30.97;;;15.53;;
80675;SDS011;70041;46.088;18.268;2023-12-20T01:16:27;28.97;;;14.83;;
80675;SDS011;70041;46.088;18.268;2023-12-20T01:18:52;26.97;;;14.93;;
80675;SDS011;70041;46.088;18.268;2023-12-20T01:21:17;27.50;;;14.90;;
80675;SDS011;70041;46.088;18.268;2023-12-20T01:23:43;32.55;;;14.98;;
80675;SDS011;70041;46.088;18.268;2023-12-20T01:26:08;29.10;;;14.90;;
80675;SDS011;70041;46.088;18.268;2023-12-20T01:28:34;29.70;;;14.30;;
80675;SDS011;70041;46.088;18.268;2023-12-20T01:30:59;30.27;;;15.77;;
80675;SDS011;70041;46.088;18.268;2023-12-20T01:33:25;28.00;;;14.57;;
80675;SDS011;70041;46.088;18.268;2023-12-20T01:35:50;27.83;;;13.77;;
80675;SDS011;70041;46.088;18.268;2023-12-20T01:38:15;32.07;;;15.57;;
80675;SDS011;70041;46.088;18.268;2023-12-20T01:40:43;26.08;;;14.38;;
80675;SDS011;70041;46.088;18.268;2023-12-20T01:43:09;25.37;;;14.10;;
80675;SDS011;70041;46.088;18.268;2023-12-20T01:45:36;32.25;;;16.30;;
80675;SDS011;70041;46.088;18.268;2023-12-20T01:48:02;27.17;;;14.80;;
80675;SDS011;70041;46.088;18.268;2023-12-20T01:50:29;31.80;;;15.57;;
80675;SDS011;70041;46.088;18.268;2023-12-20T01:52:55;31.83;;;15.48;;
80675;SDS011;70041;46.088;18.268;2023-12-20T01:55:23;28.17;;;14.80;;
80675;SDS011;70041;46.088;18.268;2023-12-20T01:57:49;27.35;;;14.82;;
80675;SDS011;70041;46.088;18.268;2023-12-20T02:00:15;31.52;;;15.45;;
80675;SDS011;70041;46.088;18.268;2023-12-20T02:02:42;30.05;;;15.38;;
80675;SDS011;70041;46.088;18.268;2023-12-20T02:05:09;29.02;;;15.75;;
80675;SDS011;70041;46.088;18.268;2023-12-20T02:07:35;33.50;;;15.80;;
80675;SDS011;70041;46.088;18.268;2023-12-20T02:10:01;29.60;;;14.52;;
80675;SDS011;70041;46.088;18.268;2023-12-20T02:12:27;29.67;;;16.00;;
80675;SDS011;70041;46.088;18.268;2023-12-20T02:14:52;24.67;;;14.30;;
80675;SDS011;70041;46.088;18.268;2023-12-20T02:17:19;22.53;;;13.10;;
80675;SDS011;70041;46.088;18.268;2023-12-20T02:19:45;29.27;;;14.52;;
80675;SDS011;70041;46.088;18.268;2023-12-20T02:22:10;34.40;;;15.63;;
80675;SDS011;70041;46.088;18.268;2023-12-20T02:24:36;26.80;;;13.90;;
80675;SDS011;70041;46.088;18.268;2023-12-20T02:27:02;31.63;;;15.32;;
80675;SDS011;70041;46.088;18.268;2023-12-20T02:29:28;29.73;;;14.07;;
80675;SDS011;70041;46.088;18.268;2023-12-20T02:31:53;28.27;;;14.37;;
80675;SDS011;70041;46.088;18.268;2023-12-20T02:34:18;28.83;;;14.53;;
80675;SDS011;70041;46.088;18.268;2023-12-20T02:36:44;25.92;;;14.13;;
80675;SDS011;70041;46.088;18.268;2023-12-20T02:39:09;26.70;;;15.10;;
80675;SDS011;70041;46.088;18.268;2023-12-20T02:41:35;29.43;;;15.93;;
80675;SDS011;70041;46.088;18.268;2023-12-20T02:44:01;28.03;;;15.23;;
80675;SDS011;70041;46.088;18.268;2023-12-20T02:46:27;29.60;;;15.30;;
80675;SDS011;70041;46.088;18.268;2023-12-20T02:48:52;26.93;;;14.53;;
80675;SDS011;70041;46.088;18.268;2023-12-20T02:51:18;33.87;;;16.33;;
80675;SDS011;70041;46.088;18.268;2023-12-20T02:53:43;29.87;;;15.10;;
80675;SDS011;70041;46.088;18.268;2023-12-20T02:56:08;29.67;;;15.10;;
80675;SDS011;70041;46.088;18.268;2023-12-20T02:58:34;25.08;;;13.13;;
80675;SDS011;70041;46.088;18.268;2023-12-20T03:00:59;29.00;;;14.63;;
80675;SDS011;70041;46.088;18.268;2023-12-20T03:03:24;27.40;;;14.07;;
80675;SDS011;70041;46.088;18.268;2023-12-20T03:05:50;26.43;;;12.90;;
80675;SDS011;70041;46.088;18.268;2023-12-20T03:08:15;29.30;;;14.93;;
80675;SDS011;70041;46.088;18.268;2023-12-20T03:10:41;28.02;;;13.90;;
80675;SDS011;70041;46.088;18.268;2023-12-20T03:13:06;28.75;;;13.85;;
80675;SDS011;70041;46.088;18.268;2023-12-20T03:15:32;31.90;;;15.47;;
80675;SDS011;70041;46.088;18.268;2023-12-20T03:17:57;32.20;;;15.57;;
80675;SDS011;70041;46.088;18.268;2023-12-20T03:20:24;37.20;;;14.82;;
80675;SDS011;70041;46.088;18.268;2023-12-20T03:22:51;39.17;;;16.05;;
80675;SDS011;70041;46.088;18.268;2023-12-20T03:25:16;36.67;;;15.17;;
80675;SDS011;70041;46.088;18.268;2023-12-20T03:27:42;33.70;;;14.53;;
80675;SDS011;70041;46.088;18.268;2023-12-20T03:30:07;34.00;;;15.97;;
80675;SDS011;70041;46.088;18.268;2023-12-20T03:32:33;27.70;;;14.32;;
80675;SDS011;70041;46.088;18.268;2023-12-20T03:34:58;28.53;;;14.23;;
80675;SDS011;70041;46.088;18.268;2023-12-20T03:37:24;29.37;;;16.07;;
80675;SDS011;70041;46.088;18.268;2023-12-20T03:39:49;28.43;;;13.93;;
80675;SDS011;70041;46.088;18.268;2023-12-20T03:42:14;28.90;;;14.63;;
80675;SDS011;70041;46.088;18.268;2023-12-20T03:44:40;26.03;;;13.33;;
80675;SDS011;70041;46.088;18.268;2023-12-20T03:47:06;28.40;;;14.03;;
80675;SDS011;70041;46.088;18.268;2023-12-20T03:49:31;29.40;;;15.15;;
80675;SDS011;70041;46.088;18.268;2023-12-20T03:51:57;27.70;;;14.10;;
80675;SDS011;70041;46.088;18.268;2023-12-20T03:54:22;37.13;;;16.30;;
80675;SDS011;70041;46.088;18.268;2023-12-20T03:56:47;25.73;;;14.07;;
80675;SDS011;70041;46.088;18.268;2023-12-20T03:59:13;30.97;;;13.63;;
80675;SDS011;70041;46.088;18.268;2023-12-20T04:01:42;26.92;;;13.38;;
80675;SDS011;70041;46.088;18.268;2023-12-20T04:04:09;28.25;;;13.23;;
80675;SDS011;70041;46.088;18.268;2023-12-20T04:06:34;24.00;;;13.70;;
80675;SDS011;70041;46.088;18.268;2023-12-20T04:09:00;30.20;;;15.97;;
80675;SDS011;70041;46.088;18.268;2023-12-20T04:11:25;27.77;;;15.87;;
80675;SDS011;70041;46.088;18.268;2023-12-20T04:13:51;34.00;;;17.53;;
80675;SDS011;70041;46.088;18.268;2023-12-20T04:16:16;34.17;;;17.17;;
80675;SDS011;70041;46.088;18.268;2023-12-20T04:18:41;31.95;;;17.70;;
80675;SDS011;70041;46.088;18.268;2023-12-20T04:21:07;39.20;;;18.13;;
80675;SDS011;70041;46.088;18.268;2023-12-20T04:23:32;32.57;;;16.27;;
80675;SDS011;70041;46.088;18.268;2023-12-20T04:25:58;28.53;;;15.70;;
80675;SDS011;70041;46.088;18.268;2023-12-20T04:28:23;33.88;;;16.40;;
80675;SDS011;70041;46.088;18.268;2023-12-20T04:30:49;33.83;;;16.08;;
80675;SDS011;70041;46.088;18.268;2023-12-20T04:33:14;32.93;;;17.57;;
80675;SDS011;70041;46.088;18.268;2023-12-20T04:35:39;34.53;;;17.23;;
80675;SDS011;70041;46.088;18.268;2023-12-20T04:38:06;38.20;;;17.15;;
80675;SDS011;70041;46.088;18.268;2023-12-20T04:40:31;31.70;;;17.30;;
80675;SDS011;70041;46.088;18.268;2023-12-20T04:42:57;31.35;;;15.40;;
80675;SDS011;70041;46.088;18.268;2023-12-20T04:45:22;28.20;;;14.77;;
80675;SDS011;70041;46.088;18.268;2023-12-20T04:47:49;28.43;;;15.23;;
80675;SDS011;70041;46.088;18.268;2023-12-20T04:50:15;26.60;;;14.50;;
80675;SDS011;70041;46.088;18.268;2023-12-20T04:52:41;32.27;;;15.90;;
80675;SDS011;70041;46.088;18.268;2023-12-20T04:55:07;29.15;;;16.23;;
80675;SDS011;70041;46.088;18.268;2023-12-20T04:57:33;34.20;;;17.25;;
80675;SDS011;70041;46.088;18.268;2023-12-20T04:59:59;29.47;;;15.77;;
80675;SDS011;70041;46.088;18.268;2023-12-20T05:02:24;31.10;;;16.40;;
80675;SDS011;70041;46.088;18.268;2023-12-20T05:04:50;31.53;;;16.37;;
80675;SDS011;70041;46.088;18.268;2023-12-20T05:07:15;32.90;;;16.57;;
80675;SDS011;70041;46.088;18.268;2023-12-20T05:09:41;34.67;;;17.77;;
80675;SDS011;70041;46.088;18.268;2023-12-20T05:12:06;32.08;;;17.20;;
80675;SDS011;70041;46.088;18.268;2023-12-20T05:14:32;34.20;;;17.17;;
80675;SDS011;70041;46.088;18.268;2023-12-20T05:16:58;32.33;;;16.83;;
80675;SDS011;70041;46.088;18.268;2023-12-20T05:19:23;33.90;;;17.50;;
80675;SDS011;70041;46.088;18.268;2023-12-20T05:21:49;32.53;;;16.67;;
80675;SDS011;70041;46.088;18.268;2023-12-20T05:24:15;34.15;;;17.05;;
80675;SDS011;70041;46.088;18.268;2023-12-20T05:26:40;28.33;;;15.83;;
80675;SDS011;70041;46.088;18.268;2023-12-20T05:29:05;34.30;;;15.73;;
80675;SDS011;70041;46.088;18.268;2023-12-20T05:31:31;29.87;;;17.27;;
80675;SDS011;70041;46.088;18.268;2023-12-20T05:33:57;32.80;;;16.20;;
80675;SDS011;70041;46.088;18.268;2023-12-20T05:36:22;33.43;;;16.00;;
80675;SDS011;70041;46.088;18.268;2023-12-20T05:38:47;25.80;;;15.43;;
80675;SDS011;70041;46.088;18.268;2023-12-20T05:41:13;27.27;;;14.93;;
80675;SDS011;70041;46.088;18.268;2023-12-20T05:43:38;31.50;;;16.23;;
80675;SDS011;70041;46.088;18.268;2023-12-20T05:46:04;30.80;;;16.33;;
80675;SDS011;70041;46.088;18.268;2023-12-20T05:48:30;30.60;;;15.60;;
80675;SDS011;70041;46.088;18.268;2023-12-20T05:50:55;31.13;;;16.87;;
80675;SDS011;70041;46.088;18.268;2023-12-20T05:53:21;29.70;;;16.03;;
80675;SDS011;70041;46.088;18.268;2023-12-20T05:55:46;34.60;;;17.13;;
80675;SDS011;70041;46.088;18.268;2023-12-20T05:58:11;28.40;;;17.13;;
80675;SDS011;70041;46.088;18.268;2023-12-20T06:00:37;27.33;;;16.20;;
80675;SDS011;70041;46.088;18.268;2023-12-20T06:03:03;37.47;;;17.53;;
80675;SDS011;70041;46.088;18.268;2023-12-20T06:05:30;31.58;;;17.52;;
80675;SDS011;70041;46.088;18.268;2023-12-20T06:07:55;38.08;;;18.52;;
80675;SDS011;70041;46.088;18.268;2023-12-20T06:10:26;36.33;;;20.23;;
80675;SDS011;70041;46.088;18.268;2023-12-20T06:12:52;39.60;;;20.50;;
80675;SDS011;70041;46.088;18.268;2023-12-20T06:15:17;38.13;;;19.57;;
80675;SDS011;70041;46.088;18.268;2023-12-20T06:17:42;39.05;;;19.88;;
80675;SDS011;70041;46.088;18.268;2023-12-20T06:20:08;37.50;;;17.33;;
80675;SDS011;70041;46.088;18.268;2023-12-20T06:22:34;32.67;;;17.90;;
80675;SDS011;70041;46.088;18.268;2023-12-20T06:25:01;37.37;;;20.37;;
80675;SDS011;70041;46.088;18.268;2023-12-20T06:27:27;40.55;;;19.27;;
80675;SDS011;70041;46.088;18.268;2023-12-20T06:29:53;36.22;;;20.52;;
80675;SDS011;70041;46.088;18.268;2023-12-20T06:32:18;39.47;;;22.63;;
80675;SDS011;70041;46.088;18.268;2023-12-20T06:34:44;46.77;;;25.63;;
80675;SDS011;70041;46.088;18.268;2023-12-20T06:37:09;63.93;;;31.50;;
80675;SDS011;70041;46.088;18.268;2023-12-20T06:39:35;53.55;;;30.40;;
80675;SDS011;70041;46.088;18.268;2023-12-20T06:42:00;48.72;;;25.70;;
80675;SDS011;70041;46.088;18.268;2023-12-20T06:44:26;42.47;;;23.73;;
80675;SDS011;70041;46.088;18.268;2023-12-20T06:46:51;39.37;;;21.47;;
80675;SDS011;70041;46.088;18.268;2023-12-20T06:49:16;49.93;;;22.97;;
80675;SDS011;70041;46.088;18.268;2023-12-20T06:51:43;40.25;;;22.00;;
80675;SDS011;70041;46.088;18.268;2023-12-20T06:54:08;41.60;;;21.33;;
80675;SDS011;70041;46.088;18.268;2023-12-20T06:56:34;47.13;;;23.07;;
80675;SDS011;70041;46.088;18.268;2023-12-20T06:58:59;45.15;;;22.27;;
80675;SDS011;70041;46.088;18.268;2023-12-20T07:01:25;51.07;;;22.67;;
80675;SDS011;70041;46.088;18.268;2023-12-20T07:03:50;44.40;;;20.90;;
80675;SDS011;70041;46.088;18.268;2023-12-20T07:06:16;43.63;;;20.77;;
80675;SDS011;70041;46.088;18.268;2023-12-20T07:08:42;40.25;;;22.20;;
80675;SDS011;70041;46.088;18.268;2023-12-20T07:11:07;42.57;;;19.37;;
80675;SDS011;70041;46.088;18.268;2023-12-20T07:13:33;43.35;;;21.02;;
80675;SDS011;70041;46.088;18.268;2023-12-20T07:15:58;43.00;;;23.10;;
80675;SDS011;70041;46.088;18.268;2023-12-20T07:18:24;44.17;;;23.23;;
80675;SDS011;70041;46.088;18.268;2023-12-20T07:20:49;43.67;;;23.10;;
80675;SDS011;70041;46.088;18.268;2023-12-20T07:23:15;46.53;;;22.37;;
80675;SDS011;70041;46.088;18.268;2023-12-20T07:25:40;40.53;;;22.60;;
80675;SDS011;70041;46.088;18.268;2023-12-20T07:28:06;43.50;;;23.38;;
80675;SDS011;70041;46.088;18.268;2023-12-20T07:30:31;48.58;;;24.17;;
80675;SDS011;70041;46.088;18.268;2023-12-20T07:32:57;43.07;;;24.17;;
80675;SDS011;70041;46.088;18.268;2023-12-20T07:35:25;39.87;;;22.70;;
80675;SDS011;70041;46.088;18.268;2023-12-20T07:37:51;45.00;;;24.80;;
80675;SDS011;70041;46.088;18.268;2023-12-20T07:40:16;34.37;;;21.13;;
80675;SDS011;70041;46.088;18.268;2023-12-20T07:42:42;29.45;;;17.73;;
80675;SDS011;70041;46.088;18.268;2023-12-20T07:45:07;31.33;;;17.60;;
80675;SDS011;70041;46.088;18.268;2023-12-20T07:47:34;33.63;;;20.75;;
80675;SDS011;70041;46.088;18.268;2023-12-20T07:49:59;39.27;;;23.03;;
80675;SDS011;70041;46.088;18.268;2023-12-20T07:52:25;44.60;;;22.40;;
80675;SDS011;70041;46.088;18.268;2023-12-20T07:54:51;39.08;;;21.20;;
80675;SDS011;70041;46.088;18.268;2023-12-20T07:57:16;44.37;;;24.27;;
80675;SDS011;70041;46.088;18.268;2023-12-20T07:59:42;39.80;;;19.57;;
80675;SDS011;70041;46.088;18.268;2023-12-20T08:02:09;42.40;;;23.17;;
80675;SDS011;70041;46.088;18.268;2023-12-20T08:04:34;41.78;;;22.05;;
80675;SDS011;70041;46.088;18.268;2023-12-20T08:07:00;43.87;;;21.43;;
80675;SDS011;70041;46.088;18.268;2023-12-20T08:09:25;46.97;;;23.83;;
80675;SDS011;70041;46.088;18.268;2023-12-20T08:11:51;54.53;;;24.53;;
80675;SDS011;70041;46.088;18.268;2023-12-20T08:14:16;49.28;;;22.15;;
80675;SDS011;70041;46.088;18.268;2023-12-20T08:16:42;43.30;;;20.27;;
80675;SDS011;70041;46.088;18.268;2023-12-20T08:19:08;39.50;;;19.95;;
80675;SDS011;70041;46.088;18.268;2023-12-20T08:21:33;45.67;;;21.92;;
80675;SDS011;70041;46.088;18.268;2023-12-20T08:23:59;47.47;;;21.42;;
80675;SDS011;70041;46.088;18.268;2023-12-20T08:26:25;35.17;;;17.48;;
80675;SDS011;70041;46.088;18.268;2023-12-20T08:28:51;42.80;;;20.80;;
80675;SDS011;70041;46.088;18.268;2023-12-20T08:31:17;44.53;;;19.67;;
80675;SDS011;70041;46.088;18.268;2023-12-20T08:33:44;36.40;;;19.03;;
80675;SDS011;70041;46.088;18.268;2023-12-20T08:36:10;43.35;;;18.67;;
80675;SDS011;70041;46.088;18.268;2023-12-20T08:38:36;37.00;;;19.15;;
80675;SDS011;70041;46.088;18.268;2023-12-20T08:41:02;45.80;;;20.83;;
80675;SDS011;70041;46.088;18.268;2023-12-20T08:43:30;37.45;;;19.58;;
80675;SDS011;70041;46.088;18.268;2023-12-20T08:45:56;35.92;;;19.13;;
80675;SDS011;70041;46.088;18.268;2023-12-20T08:48:21;32.03;;;17.07;;
80675;SDS011;70041;46.088;18.268;2023-12-20T08:50:47;32.80;;;17.08;;
80675;SDS011;70041;46.088;18.268;2023-12-20T08:53:15;26.07;;;13.53;;
80675;SDS011;70041;46.088;18.268;2023-12-20T08:55:42;30.75;;;15.30;;
80675;SDS011;70041;46.088;18.268;2023-12-20T08:58:07;31.92;;;15.60;;
80675;SDS011;70041;46.088;18.268;2023-12-20T09:00:33;33.13;;;16.73;;
80675;SDS011;70041;46.088;18.268;2023-12-20T09:02:59;28.92;;;17.27;;
80675;SDS011;70041;46.088;18.268;2023-12-20T09:05:26;32.13;;;15.70;;
80675;SDS011;70041;46.088;18.268;2023-12-20T09:07:51;34.40;;;16.50;;
80675;SDS011;70041;46.088;18.268;2023-12-20T09:10:17;36.00;;;17.70;;
80675;SDS011;70041;46.088;18.268;2023-12-20T09:12:47;42.85;;;19.73;;
80675;SDS011;70041;46.088;18.268;2023-12-20T09:15:16;34.38;;;16.98;;
80675;SDS011;70041;46.088;18.268;2023-12-20T09:17:41;34.60;;;18.87;;
80675;SDS011;70041;46.088;18.268;2023-12-20T09:20:08;43.08;;;20.15;;
80675;SDS011;70041;46.088;18.268;2023-12-20T09:22:34;59.05;;;28.40;;
80675;SDS011;70041;46.088;18.268;2023-12-20T09:25:00;52.50;;;24.80;;
80675;SDS011;70041;46.088;18.268;2023-12-20T09:27:26;46.40;;;23.42;;
80675;SDS011;70041;46.088;18.268;2023-12-20T09:29:52;44.20;;;22.70;;
80675;SDS011;70041;46.088;18.268;2023-12-20T09:32:18;46.60;;;23.48;;
80675;SDS011;70041;46.088;18.268;2023-12-20T09:34:45;43.60;;;22.85;;
80675;SDS011;70041;46.088;18.268;2023-12-20T09:37:12;49.40;;;25.20;;
80675;SDS011;70041;46.088;18.268;2023-12-20T09:39:38;44.10;;;21.60;;
80675;SDS011;70041;46.088;18.268;2023-12-20T09:42:04;44.53;;;23.70;;
80675;SDS011;70041;46.088;18.268;2023-12-20T09:44:31;49.22;;;23.38;;
80675;SDS011;70041;46.088;18.268;2023-12-20T09:46:58;46.45;;;23.75;;
80675;SDS011;70041;46.088;18.268;2023-12-20T09:49:25;41.47;;;21.92;;
80675;SDS011;70041;46.088;18.268;2023-12-20T09:51:53;43.03;;;22.75;;
80675;SDS011;70041;46.088;18.268;2023-12-20T09:54:19;48.53;;;23.57;;
80675;SDS011;70041;46.088;18.268;2023-12-20T09:56:46;38.95;;;19.45;;
80675;SDS011;70041;46.088;18.268;2023-12-20T09:59:12;42.05;;;22.45;;
80675;SDS011;70041;46.088;18.268;2023-12-20T10:01:39;49.90;;;28.00;;
80675;SDS011;70041;46.088;18.268;2023-12-20T10:04:06;40.90;;;21.70;;
80675;SDS011;70041;46.088;18.268;2023-12-20T10:06:37;49.17;;;24.27;;
80675;SDS011;70041;46.088;18.268;2023-12-20T10:09:09;45.97;;;24.48;;
80675;SDS011;70041;46.088;18.268;2023-12-20T10:11:36;46.22;;;23.38;;
80675;SDS011;70041;46.088;18.268;2023-12-20T10:14:03;45.20;;;23.95;;
80675;SDS011;70041;46.088;18.268;2023-12-20T10:16:29;45.65;;;23.70;;
80675;SDS011;70041;46.088;18.268;2023-12-20T10:18:55;48.90;;;26.03;;
80675;SDS011;70041;46.088;18.268;2023-12-20T10:21:24;39.65;;;23.88;;
80675;SDS011;70041;46.088;18.268;2023-12-20T10:23:56;46.72;;;23.25;;
80675;SDS011;70041;46.088;18.268;2023-12-20T10:26:23;56.75;;;28.08;;
80675;SDS011;70041;46.088;18.268;2023-12-20T10:28:50;46.13;;;27.30;;
80675;SDS011;70041;46.088;18.268;2023-12-20T10:34:00;50.58;;;28.35;;
80675;SDS011;70041;46.088;18.268;2023-12-20T10:36:27;55.20;;;28.00;;
80675;SDS011;70041;46.088;18.268;2023-12-20T10:38:57;63.15;;;32.70;;
80675;SDS011;70041;46.088;18.268;2023-12-20T10:41:30;62.07;;;33.30;;
80675;SDS011;70041;46.088;18.268;2023-12-20T10:44:01;71.82;;;39.65;;
80675;SDS011;70041;46.088;18.268;2023-12-20T10:46:28;71.25;;;36.25;;
80675;SDS011;70041;46.088;18.268;2023-12-20T10:48:55;63.78;;;33.72;;
80675;SDS011;70041;46.088;18.268;2023-12-20T10:51:22;64.70;;;34.17;;
80675;SDS011;70041;46.088;18.268;2023-12-20T10:53:49;61.93;;;32.40;;
80675;SDS011;70041;46.088;18.268;2023-12-20T10:56:16;54.53;;;30.77;;
80675;SDS011;70041;46.088;18.268;2023-12-20T10:58:43;56.08;;;30.98;;
80675;SDS011;70041;46.088;18.268;2023-12-20T11:01:09;53.50;;;31.98;;
80675;SDS011;70041;46.088;18.268;2023-12-20T11:03:38;46.20;;;27.58;;
80675;SDS011;70041;46.088;18.268;2023-12-20T11:09:09;48.00;;;26.75;;
80675;SDS011;70041;46.088;18.268;2023-12-20T11:14:25;50.63;;;27.92;;
80675;SDS011;70041;46.088;18.268;2023-12-20T11:22:18;43.08;;;22.98;;
80675;SDS011;70041;46.088;18.268;2023-12-20T11:24:45;44.30;;;23.45;;
80675;SDS011;70041;46.088;18.268;2023-12-20T11:27:12;54.05;;;31.02;;
80675;SDS011;70041;46.088;18.268;2023-12-20T11:29:38;60.45;;;32.58;;
80675;SDS011;70041;46.088;18.268;2023-12-20T11:34:50;48.65;;;26.20;;
80675;SDS011;70041;46.088;18.268;2023-12-20T11:37:19;48.30;;;24.65;;
80675;SDS011;70041;46.088;18.268;2023-12-20T11:39:45;42.00;;;21.52;;
80675;SDS011;70041;46.088;18.268;2023-12-20T11:42:19;34.90;;;19.48;;
80675;SDS011;70041;46.088;18.268;2023-12-20T11:44:45;36.40;;;18.80;;
80675;SDS011;70041;46.088;18.268;2023-12-20T11:47:12;31.17;;;17.48;;
80675;SDS011;70041;46.088;18.268;2023-12-20T11:49:38;35.50;;;18.92;;
80675;SDS011;70041;46.088;18.268;2023-12-20T11:52:04;34.27;;;18.17;;
80675;SDS011;70041;46.088;18.268;2023-12-20T11:54:30;33.35;;;17.20;;
80675;SDS011;70041;46.088;18.268;2023-12-20T11:56:55;35.30;;;19.13;;
80675;SDS011;70041;46.088;18.268;2023-12-20T11:59:21;26.38;;;13.05;;
80675;SDS011;70041;46.088;18.268;2023-12-20T12:01:50;37.67;;;16.53;;
80675;SDS011;70041;46.088;18.268;2023-12-20T12:04:16;29.13;;;14.32;;
80675;SDS011;70041;46.088;18.268;2023-12-20T12:06:42;16.00;;;8.77;;
80675;SDS011;70041;46.088;18.268;2023-12-20T12:09:09;9.82;;;4.35;;
80675;SDS011;70041;46.088;18.268;2023-12-20T12:11:34;9.90;;;3.83;;
80675;SDS011;70041;46.088;18.268;2023-12-20T12:14:00;8.13;;;3.20;;
80675;SDS011;70041;46.088;18.268;2023-12-20T12:16:26;9.32;;;2.95;;
80675;SDS011;70041;46.088;18.268;2023-12-20T12:18:55;8.27;;;3.33;;
80675;SDS011;70041;46.088;18.268;2023-12-20T12:21:21;6.93;;;3.05;;
80675;SDS011;70041;46.088;18.268;2023-12-20T12:23:47;6.57;;;3.10;;
80675;SDS011;70041;46.088;18.268;2023-12-20T12:26:13;7.70;;;3.10;;
80675;SDS011;70041;46.088;18.268;2023-12-20T12:28:41;9.03;;;3.03;;
80675;SDS011;70041;46.088;18.268;2023-12-20T12:31:08;7.85;;;3.42;;
80675;SDS011;70041;46.088;18.268;2023-12-20T12:33:34;8.57;;;3.10;;
80675;SDS011;70041;46.088;18.268;2023-12-20T12:36:00;7.53;;;2.90;;
80675;SDS011;70041;46.088;18.268;2023-12-20T12:38:26;8.15;;;3.20;;
80675;SDS011;70041;46.088;18.268;2023-12-20T12:40:52;8.27;;;3.22;;
80675;SDS011;70041;46.088;18.268;2023-12-20T12:43:20;8.80;;;3.33;;
80675;SDS011;70041;46.088;18.268;2023-12-20T12:45:47;8.90;;;3.85;;
80675;SDS011;70041;46.088;18.268;2023-12-20T12:48:14;8.30;;;3.50;;
80675;SDS011;70041;46.088;18.268;2023-12-20T12:50:39;12.32;;;3.63;;
80675;SDS011;70041;46.088;18.268;2023-12-20T12:53:05;9.37;;;3.67;;
80675;SDS011;70041;46.088;18.268;2023-12-20T12:55:30;8.77;;;3.90;;
80675;SDS011;70041;46.088;18.268;2023-12-20T12:57:56;7.90;;;3.63;;
80675;SDS011;70041;46.088;18.268;2023-12-20T13:00:21;8.83;;;3.70;;
80675;SDS011;70041;46.088;18.268;2023-12-20T13:02:47;9.10;;;3.70;;
80675;SDS011;70041;46.088;18.268;2023-12-20T13:05:12;9.33;;;4.20;;
80675;SDS011;70041;46.088;18.268;2023-12-20T13:07:37;12.27;;;4.53;;
80675;SDS011;70041;46.088;18.268;2023-12-20T13:10:04;8.85;;;4.07;;
80675;SDS011;70041;46.088;18.268;2023-12-20T13:12:30;9.47;;;4.23;;
80675;SDS011;70041;46.088;18.268;2023-12-20T13:14:57;11.15;;;4.25;;
80675;SDS011;70041;46.088;18.268;2023-12-20T13:17:22;11.07;;;4.40;;
80675;SDS011;70041;46.088;18.268;2023-12-20T13:19:48;10.10;;;4.63;;
80675;SDS011;70041;46.088;18.268;2023-12-20T13:22:14;10.43;;;3.95;;
80675;SDS011;70041;46.088;18.268;2023-12-20T13:24:40;10.10;;;4.45;;
80675;SDS011;70041;46.088;18.268;2023-12-20T13:27:05;9.50;;;4.03;;
80675;SDS011;70041;46.088;18.268;2023-12-20T13:29:31;12.03;;;4.17;;
80675;SDS011;70041;46.088;18.268;2023-12-20T13:31:56;12.37;;;5.43;;
80675;SDS011;70041;46.088;18.268;2023-12-20T13:34:22;12.13;;;4.53;;
80675;SDS011;70041;46.088;18.268;2023-12-20T13:36:48;8.97;;;4.57;;
80675;SDS011;70041;46.088;18.268;2023-12-20T13:39:15;8.52;;;4.20;;
80675;SDS011;70041;46.088;18.268;2023-12-20T13:41:42;29.95;;;10.07;;
80675;SDS011;70041;46.088;18.268;2023-12-20T13:44:07;12.82;;;5.43;;
80675;SDS011;70041;46.088;18.268;2023-12-20T13:46:32;13.18;;;6.10;;
80675;SDS011;70041;46.088;18.268;2023-12-20T13:48:58;12.07;;;4.47;;
80675;SDS011;70041;46.088;18.268;2023-12-20T13:51:23;11.43;;;5.43;;
80675;SDS011;70041;46.088;18.268;2023-12-20T13:53:49;16.37;;;7.93;;
80675;SDS011;70041;46.088;18.268;2023-12-20T13:56:15;12.75;;;5.18;;
80675;SDS011;70041;46.088;18.268;2023-12-20T13:58:40;11.07;;;4.90;;
80675;SDS011;70041;46.088;18.268;2023-12-20T14:01:06;10.75;;;4.78;;
80675;SDS011;70041;46.088;18.268;2023-12-20T14:03:33;10.98;;;4.95;;
80675;SDS011;70041;46.088;18.268;2023-12-20T14:05:58;11.38;;;5.40;;
80675;SDS011;70041;46.088;18.268;2023-12-20T14:08:25;12.77;;;5.43;;
80675;SDS011;70041;46.088;18.268;2023-12-20T14:10:52;11.48;;;5.88;;
80675;SDS011;70041;46.088;18.268;2023-12-20T14:13:17;12.40;;;5.30;;
80675;SDS011;70041;46.088;18.268;2023-12-20T14:15:42;12.40;;;4.50;;
80675;SDS011;70041;46.088;18.268;2023-12-20T14:18:08;11.23;;;4.20;;
80675;SDS011;70041;46.088;18.268;2023-12-20T14:20:33;10.47;;;4.57;;